createdAt,value
2023-03-21T00:00:59.240Z,5.60
2023-03-21T00:03:28.904Z,5.60
2023-03-21T00:05:59.290Z,5.60
2023-03-21T00:08:27.543Z,5.59
2023-03-21T00:11:01.023Z,5.59
2023-03-21T00:13:33.026Z,5.59
2023-03-21T00:16:19.392Z,5.59
2023-03-21T00:18:53.965Z,5.58
2023-03-21T00:21:43.969Z,5.57
2023-03-21T00:24:11.024Z,5.57
2023-03-21T00:26:40.463Z,5.56
2023-03-21T00:29:09.109Z,5.55
2023-03-21T00:31:40.645Z,5.55
2023-03-21T00:36:39.194Z,5.52
2023-03-21T00:39:09.386Z,5.52
2023-03-21T00:41:44.832Z,5.51
2023-03-21T00:44:16.114Z,5.50
2023-03-21T00:46:57.055Z,5.49
2023-03-21T00:49:34.341Z,5.49
2023-03-21T00:52:34.386Z,5.50
2023-03-21T00:54:55.113Z,5.50
2023-03-21T00:57:37.558Z,5.49
2023-03-21T01:00:12.123Z,5.50
2023-03-21T01:03:14.201Z,5.49
2023-03-21T01:06:04.321Z,5.49
2023-03-21T01:08:51.201Z,5.48
2023-03-21T01:11:26.006Z,5.48
2023-03-21T01:14:04.194Z,5.47
2023-03-21T01:16:39.617Z,5.45
2023-03-21T01:19:14.940Z,5.43
2023-03-21T01:21:50.711Z,5.41
2023-03-21T01:24:19.305Z,5.37
2023-03-21T01:26:48.527Z,5.34
2023-03-21T01:29:17.086Z,5.33
2023-03-21T01:31:45.687Z,5.29
2023-03-21T01:34:14.045Z,5.25
2023-03-21T01:37:02.488Z,5.23
2023-03-21T01:39:35.048Z,5.21
2023-03-21T01:42:03.356Z,5.19
2023-03-21T01:44:32.143Z,5.17
2023-03-21T01:47:11.068Z,5.17
2023-03-21T01:49:51.019Z,5.17
2023-03-21T01:52:38.116Z,5.15
2023-03-21T01:55:16.515Z,5.15
2023-03-21T01:58:05.863Z,5.14
2023-03-21T02:00:49.248Z,5.10
2023-03-21T02:03:35.340Z,5.06
2023-03-21T02:06:37.463Z,5.04
2023-03-21T02:09:16.784Z,5.02
2023-03-21T02:11:51.058Z,5.01
2023-03-21T02:14:28.977Z,5.00
2023-03-21T02:17:20.016Z,5.00
2023-03-21T02:20:02.787Z,4.99
2023-03-21T02:23:10.798Z,4.97
2023-03-21T02:25:57.099Z,4.96
2023-03-21T02:28:46.288Z,4.95
2023-03-21T02:31:54.631Z,4.95
2023-03-21T02:34:30.188Z,4.94
2023-03-21T02:37:02.784Z,4.91
2023-03-21T02:39:54.140Z,4.88
2023-03-21T02:42:33.819Z,4.86
2023-03-21T02:45:04.167Z,4.85
2023-03-21T02:47:41.037Z,4.83
2023-03-21T02:50:53.095Z,4.81
2023-03-21T02:53:23.408Z,4.80
2023-03-21T02:55:53.018Z,4.79
2023-03-21T02:58:39.285Z,4.81
2023-03-21T03:01:09.236Z,4.78
2023-03-21T03:03:45.185Z,4.78
2023-03-21T03:06:21.877Z,4.78
2023-03-21T03:09:02.838Z,4.78
2023-03-21T03:11:33.699Z,4.78
2023-03-21T03:14:44.254Z,4.78
2023-03-21T03:17:46.583Z,4.76
2023-03-21T03:20:23.525Z,4.74
2023-03-21T03:22:59.926Z,4.71
2023-03-21T03:25:42.973Z,4.69
2023-03-21T03:28:15.969Z,4.67
2023-03-21T03:30:57.462Z,4.66
2023-03-21T03:33:34.887Z,4.65
2023-03-21T03:36:07.168Z,4.65
2023-03-21T03:38:37.486Z,4.65
2023-03-21T03:41:11.061Z,4.62
2023-03-21T03:43:51.046Z,4.58
2023-03-21T03:46:29.372Z,4.55
2023-03-21T03:49:05.664Z,4.55
2023-03-21T03:51:51.915Z,4.56
2023-03-21T03:54:32.986Z,4.56
2023-03-21T03:57:05.191Z,4.57
2023-03-21T03:59:37.356Z,4.57
2023-03-21T04:02:20.633Z,4.57
2023-03-21T04:04:53.097Z,4.57
2023-03-21T04:07:22.597Z,4.56
2023-03-21T04:09:53.638Z,4.55
2023-03-21T04:12:22.453Z,4.54
2023-03-21T04:15:23.318Z,4.55
2023-03-21T04:17:57.677Z,4.55
2023-03-21T04:20:36.079Z,4.54
2023-03-21T04:23:06.618Z,4.53
2023-03-21T04:25:44.627Z,4.53
2023-03-21T04:28:16.279Z,4.53
2023-03-21T04:31:01.202Z,4.52
2023-03-21T04:33:38.641Z,4.53
2023-03-21T04:36:09.547Z,4.54
2023-03-21T04:38:39.292Z,4.55
2023-03-21T04:41:08.051Z,4.57
2023-03-21T04:43:38.599Z,4.60
2023-03-21T04:46:07.488Z,4.64
2023-03-21T04:48:35.881Z,4.67
2023-03-21T04:51:07.035Z,4.70
2023-03-21T04:53:36.217Z,4.74
2023-03-21T04:56:04.871Z,4.79
2023-03-21T04:58:33.701Z,4.86
2023-03-21T05:01:02.700Z,4.91
2023-03-21T05:03:40.156Z,4.98
2023-03-21T05:06:09.541Z,5.03
2023-03-21T05:08:37.846Z,5.07
2023-03-21T05:11:07.295Z,5.11
2023-03-21T05:13:36.231Z,5.16
2023-03-21T05:16:05.549Z,5.21
2023-03-21T05:18:38.969Z,5.26
2023-03-21T05:21:13.694Z,5.30
2023-03-21T05:23:42.072Z,5.36
2023-03-21T05:26:11.048Z,5.42
2023-03-21T05:28:48.431Z,5.47
2023-03-21T05:31:18.595Z,5.53
2023-03-21T05:33:48.876Z,5.57
2023-03-21T05:36:24.627Z,5.60
2023-03-21T05:38:52.806Z,5.61
2023-03-21T05:41:21.593Z,5.63
2023-03-21T05:43:50.162Z,5.63
2023-03-21T05:46:18.390Z,5.64
2023-03-21T05:48:48.639Z,5.65
2023-03-21T05:51:19.127Z,5.67
2023-03-21T05:53:47.522Z,5.71
2023-03-21T05:56:16.883Z,5.73
2023-03-21T05:58:50.454Z,5.76
2023-03-21T06:01:19.372Z,5.80
2023-03-21T06:03:53.872Z,5.85
2023-03-21T06:06:28.806Z,5.94
2023-03-21T06:08:58.592Z,6.05
2023-03-21T06:11:29.170Z,6.15
2023-03-21T06:14:13.089Z,6.28
2023-03-21T06:16:45.596Z,6.42
2023-03-21T06:19:14.873Z,6.55
2023-03-21T06:22:00.276Z,6.69
2023-03-21T06:24:29.061Z,6.86
2023-03-21T06:26:57.650Z,7.03
2023-03-21T06:29:27.933Z,7.18
2023-03-21T06:31:56.139Z,7.31
2023-03-21T06:34:24.729Z,7.45
2023-03-21T06:37:00.513Z,7.58
2023-03-21T06:39:33.272Z,7.68
2023-03-21T06:42:01.674Z,7.78
2023-03-21T06:44:34.478Z,7.88
2023-03-21T06:47:06.747Z,7.96
2023-03-21T06:49:35.402Z,8.04
2023-03-21T06:52:10.089Z,8.12
2023-03-21T06:54:38.996Z,8.19
2023-03-21T06:57:13.727Z,8.25
2023-03-21T06:59:43.288Z,8.29
2023-03-21T07:02:19.150Z,8.34
2023-03-21T07:04:52.183Z,8.40
2023-03-21T07:07:27.212Z,8.47
2023-03-21T07:10:11.493Z,8.53
2023-03-21T07:12:47.225Z,8.61
2023-03-21T07:15:20.200Z,8.71
2023-03-21T07:17:48.867Z,8.81
2023-03-21T07:20:17.548Z,8.91
2023-03-21T07:22:46.502Z,9.04
2023-03-21T07:25:20.900Z,9.16
2023-03-21T07:27:51.142Z,9.30
2023-03-21T07:30:20.743Z,9.46
2023-03-21T07:32:51.179Z,9.63
2023-03-21T07:35:19.781Z,9.79
2023-03-21T07:37:49.126Z,9.95
2023-03-21T07:40:18.423Z,10.11
2023-03-21T07:42:48.759Z,10.26
2023-03-21T07:45:27.485Z,10.44
2023-03-21T07:47:56.192Z,10.61
2023-03-21T07:50:25.769Z,10.77
2023-03-21T07:52:54.485Z,10.92
2023-03-21T07:55:22.936Z,11.08
2023-03-21T07:57:55.746Z,11.25
2023-03-21T08:00:24.215Z,11.40
2023-03-21T08:02:58.747Z,11.53
2023-03-21T08:05:37.610Z,11.65
2023-03-21T08:08:07.248Z,11.79
2023-03-21T08:10:35.341Z,11.97
2023-03-21T08:20:45.326Z,12.69
2023-03-21T08:23:15.141Z,12.74
2023-03-21T08:25:43.380Z,12.78
2023-03-21T08:28:11.997Z,12.81
2023-03-21T08:30:40.846Z,12.89
2023-03-21T08:33:09.261Z,13.01
2023-03-21T08:35:47.114Z,13.08
2023-03-21T08:38:17.073Z,13.17
2023-03-21T08:40:46.084Z,13.31
2023-03-21T08:43:18.143Z,13.49
2023-03-21T08:45:46.592Z,13.66
2023-03-21T08:48:20.349Z,13.83
2023-03-21T08:50:49.500Z,13.94
2023-03-21T08:53:18.783Z,14.01
2023-03-21T08:55:46.967Z,14.06
2023-03-21T08:58:15.704Z,14.09
2023-03-21T09:00:44.852Z,14.10
2023-03-21T09:03:14.730Z,14.13
2023-03-21T09:05:45.788Z,14.15
2023-03-21T09:08:14.294Z,14.19
2023-03-21T09:10:42.480Z,14.29
2023-03-21T09:13:18.073Z,14.39
2023-03-21T09:15:47.356Z,14.54
2023-03-21T09:18:18.230Z,14.75
2023-03-21T09:20:55.581Z,14.95
2023-03-21T09:23:24.544Z,15.06
2023-03-21T09:25:52.662Z,15.14
2023-03-21T09:28:21.471Z,15.21
2023-03-21T09:30:49.878Z,15.30
2023-03-21T09:33:19.272Z,15.39
2023-03-21T09:35:47.983Z,15.51
2023-03-21T09:38:17.484Z,15.64
2023-03-21T09:40:49.928Z,15.76
2023-03-21T09:43:22.334Z,15.84
2023-03-21T09:46:06.523Z,15.93
2023-03-21T09:49:13.109Z,16.05
2023-03-21T09:51:48.900Z,16.29
2023-03-21T09:54:28.111Z,16.52
2023-03-21T09:56:58.261Z,16.73
2023-03-21T09:59:30.809Z,16.95
2023-03-21T10:02:00.645Z,17.20
2023-03-21T10:04:32.512Z,17.43
2023-03-21T10:07:02.219Z,17.66
2023-03-21T10:09:30.473Z,17.89
2023-03-21T10:12:09.889Z,18.01
2023-03-21T10:14:40.689Z,18.15
2023-03-21T10:17:29.212Z,18.34
2023-03-21T10:20:12.224Z,18.58
2023-03-21T10:22:43.757Z,18.72
2023-03-21T10:25:15.556Z,18.78
2023-03-21T10:27:45.431Z,18.81
2023-03-21T10:30:38.013Z,18.84
2023-03-21T10:33:09.604Z,18.84
2023-03-21T10:35:38.274Z,18.83
2023-03-21T10:38:07.138Z,18.91
2023-03-21T10:40:35.823Z,18.98
2023-03-21T10:43:26.019Z,19.00
2023-03-21T10:45:54.761Z,19.09
2023-03-21T10:48:23.866Z,19.20
2023-03-21T10:50:53.306Z,19.31
2023-03-21T10:53:43.237Z,19.40
2023-03-21T10:56:11.697Z,19.53
2023-03-21T10:58:45.561Z,19.55
2023-03-21T11:01:15.907Z,19.60
2023-03-21T11:03:46.874Z,19.65
2023-03-21T11:06:22.629Z,19.61
2023-03-21T11:08:54.190Z,19.56
2023-03-21T11:11:27.543Z,19.55
2023-03-21T11:14:07.264Z,19.64
2023-03-21T11:16:41.191Z,19.74
2023-03-21T11:19:33.727Z,19.74
2023-03-21T11:22:07.906Z,19.64
2023-03-21T11:24:37.588Z,19.59
2023-03-21T11:27:08.989Z,19.53
2023-03-21T11:29:42.792Z,19.50
2023-03-21T11:32:13.063Z,19.43
2023-03-21T11:35:00.572Z,19.41
2023-03-21T11:37:35.053Z,19.42
2023-03-21T11:40:23.669Z,19.51
2023-03-21T11:42:53.549Z,19.58
2023-03-21T11:45:23.581Z,19.71
2023-03-21T11:47:57.863Z,19.82
2023-03-21T12:00:15.917Z,20.12
2023-03-21T12:03:10.806Z,19.88
2023-03-21T12:05:56.415Z,19.64
2023-03-21T12:09:04.099Z,19.37
2023-03-21T12:11:50.508Z,19.09
2023-03-21T12:14:27.340Z,18.93
2023-03-21T12:17:27.579Z,18.92
2023-03-21T12:20:08.192Z,19.13
2023-03-21T12:22:58.043Z,19.55
2023-03-21T12:25:46.938Z,19.81
2023-03-21T12:28:32.555Z,19.79
2023-03-21T12:31:11.091Z,19.72
2023-03-21T12:33:49.730Z,19.79
2023-03-21T12:36:30.116Z,19.90
2023-03-21T12:39:24.968Z,19.88
2023-03-21T12:41:59.467Z,19.85
2023-03-21T12:44:29.615Z,19.81
2023-03-21T12:47:03.471Z,19.80
2023-03-21T12:49:39.304Z,19.91
2023-03-21T12:52:10.747Z,20.10
2023-03-21T12:54:41.830Z,20.35
2023-03-21T12:57:16.074Z,20.60
2023-03-21T13:00:21.813Z,20.87
2023-03-21T13:03:02.965Z,21.11
2023-03-21T13:05:38.690Z,21.29
2023-03-21T13:08:23.736Z,21.35
2023-03-21T13:10:51.833Z,21.46
2023-03-21T13:13:26.120Z,21.57
2023-03-21T13:16:10.545Z,21.72
2023-03-21T13:18:50.131Z,21.84
2023-03-21T13:21:34.061Z,21.83
2023-03-21T13:24:28.962Z,21.63
2023-03-21T13:27:00.689Z,21.34
2023-03-21T13:29:32.290Z,21.10
2023-03-21T13:32:16.608Z,20.84
2023-03-21T13:34:44.674Z,20.50
2023-03-21T13:37:15.730Z,20.21
2023-03-21T13:39:46.093Z,19.98
2023-03-21T13:42:23.977Z,19.78
2023-03-21T13:45:00.723Z,19.59
2023-03-21T13:47:36.076Z,19.51
2023-03-21T13:50:19.429Z,19.66
2023-03-21T13:53:15.504Z,19.81
2023-03-21T13:55:44.925Z,19.69
2023-03-21T13:58:24.370Z,19.51
2023-03-21T14:01:23.707Z,19.51
2023-03-21T14:03:59.805Z,19.66
2023-03-21T14:06:42.785Z,19.67
2023-03-21T14:09:17.523Z,19.45
2023-03-21T14:11:47.277Z,19.26
2023-03-21T14:14:20.634Z,19.19
2023-03-21T14:19:19.244Z,19.26
2023-03-21T14:21:51.689Z,19.40
2023-03-21T14:24:21.186Z,19.57
2023-03-21T14:26:50.883Z,19.73
2023-03-21T14:29:27.574Z,19.87
2023-03-21T14:31:56.626Z,19.94
2023-03-21T14:34:27.197Z,20.00
2023-03-21T14:36:58.563Z,20.00
2023-03-21T14:39:29.458Z,19.86
2023-03-21T14:42:05.576Z,19.68
2023-03-21T14:44:54.048Z,19.46
2023-03-21T14:47:25.349Z,19.27
2023-03-21T14:49:53.628Z,19.12
2023-03-21T14:52:27.380Z,18.96
2023-03-21T14:54:56.283Z,18.74
2023-03-21T14:57:29.050Z,18.56
2023-03-21T14:59:59.660Z,18.42
2023-03-21T15:02:33.895Z,18.30
2023-03-21T15:05:09.765Z,18.23
2023-03-21T15:07:39.224Z,18.15
2023-03-21T15:10:14.422Z,18.12
2023-03-21T15:12:57.329Z,18.07
2023-03-21T15:15:27.638Z,17.98
2023-03-21T15:17:58.395Z,17.87
2023-03-21T15:20:31.287Z,17.71
2023-03-21T15:23:03.266Z,17.54
2023-03-21T15:25:34.090Z,17.37
2023-03-21T15:28:02.375Z,17.22
2023-03-21T15:30:31.869Z,17.06
2023-03-21T15:33:07.900Z,16.91
2023-03-21T15:35:42.353Z,16.77
2023-03-21T15:38:29.923Z,16.67
2023-03-21T15:41:20.590Z,16.52
2023-03-21T15:44:02.763Z,16.37
2023-03-21T15:46:35.544Z,16.21
2023-03-21T15:49:14.617Z,16.07
2023-03-21T15:51:52.963Z,15.92
2023-03-21T15:54:27.426Z,15.78
2023-03-21T15:57:01.686Z,15.65
2023-03-21T15:59:37.335Z,15.51
2023-03-21T16:02:19.462Z,15.37
2023-03-21T16:05:01.355Z,15.23
2023-03-21T16:07:36.686Z,15.10
2023-03-21T16:10:08.335Z,14.98
2023-03-21T16:12:38.841Z,14.86
2023-03-21T16:15:11.410Z,14.74
2023-03-21T16:17:47.556Z,14.61
2023-03-21T16:20:22.363Z,14.49
2023-03-21T16:22:53.325Z,14.34
2023-03-21T16:25:24.341Z,14.17
2023-03-21T16:27:56.364Z,14.03
2023-03-21T16:30:28.623Z,13.91
2023-03-21T16:33:04.356Z,13.81
2023-03-21T16:35:37.438Z,13.72
2023-03-21T16:38:11.140Z,13.63
2023-03-21T16:40:43.442Z,13.55
2023-03-21T16:43:15.470Z,13.48
2023-03-21T16:45:50.526Z,13.40
2023-03-21T16:48:22.490Z,13.31
2023-03-21T16:50:54.408Z,13.22
2023-03-21T16:53:25.373Z,13.15
2023-03-21T16:56:03.399Z,13.12
2023-03-21T17:06:15.141Z,13.01
2023-03-21T17:08:44.090Z,12.98
2023-03-21T17:11:16.564Z,13.00
2023-03-21T17:13:44.850Z,13.04
2023-03-21T17:16:14.055Z,13.10
2023-03-21T17:18:47.586Z,13.15
2023-03-21T17:21:20.717Z,13.20
2023-03-21T17:23:48.917Z,13.24
2023-03-21T17:26:22.987Z,13.25
2023-03-21T17:28:54.867Z,13.25
2023-03-21T17:31:25.433Z,13.25
2023-03-21T17:33:53.525Z,13.26
2023-03-21T17:36:27.380Z,13.27
2023-03-21T17:38:55.766Z,13.27
2023-03-21T17:41:24.115Z,13.26
2023-03-21T17:43:55.807Z,13.25
2023-03-21T17:46:25.296Z,13.24
2023-03-21T17:48:53.695Z,13.22
2023-03-21T17:51:26.177Z,13.20
2023-03-21T17:53:54.268Z,13.14
2023-03-21T17:56:32.144Z,13.08
2023-03-21T17:59:02.217Z,13.02
2023-03-21T18:01:35.531Z,12.95
2023-03-21T18:04:05.274Z,12.87
2023-03-21T18:06:35.326Z,12.78
2023-03-21T18:09:07.207Z,12.71
2023-03-21T18:11:39.261Z,12.64
2023-03-21T18:14:16.561Z,12.58
2023-03-21T18:16:47.909Z,12.52
2023-03-21T18:19:16.232Z,12.45
2023-03-21T18:21:47.497Z,12.38
2023-03-21T18:24:16.677Z,12.31
2023-03-21T18:26:46.141Z,12.27
2023-03-21T18:30:15.763Z,12.22
2023-03-21T18:32:08.545Z,12.17
2023-03-21T18:34:38.794Z,12.11
2023-03-21T18:37:08.557Z,12.06
2023-03-21T18:39:38.042Z,12.02
2023-03-21T18:42:07.140Z,11.99
2023-03-21T18:44:45.564Z,11.96
2023-03-21T18:47:14.459Z,11.93
2023-03-21T18:52:32.172Z,11.79
2023-03-21T18:55:00.737Z,11.71
2023-03-21T18:57:36.956Z,11.63
2023-03-21T19:00:18.749Z,11.58
2023-03-21T19:02:50.683Z,11.58
2023-03-21T19:05:22.756Z,11.58
2023-03-21T19:07:51.977Z,11.53
2023-03-21T19:10:21.991Z,11.49
2023-03-21T19:12:52.868Z,11.47
2023-03-21T19:15:21.945Z,11.45
2023-03-21T19:20:45.570Z,11.45
2023-03-21T19:23:16.997Z,11.43
2023-03-21T19:25:45.727Z,11.39
2023-03-21T19:28:15.874Z,11.30
2023-03-21T19:30:50.076Z,11.22
2023-03-21T19:33:24.556Z,11.17
2023-03-21T19:36:10.698Z,11.15
2023-03-21T19:38:41.540Z,11.12
2023-03-21T19:41:10.096Z,11.08
2023-03-21T19:43:40.142Z,11.05
2023-03-21T19:46:11.347Z,11.03
2023-03-21T19:48:41.887Z,11.03
2023-03-21T19:51:27.490Z,11.03
2023-03-21T19:53:58.219Z,11.03
2023-03-21T19:56:27.676Z,11.02
2023-03-21T19:58:56.727Z,10.99
2023-03-21T20:01:25.420Z,10.96
2023-03-21T20:03:56.868Z,10.94
2023-03-21T20:06:26.892Z,10.92
2023-03-21T20:09:37.986Z,10.90
2023-03-21T20:11:47.287Z,10.89
2023-03-21T20:14:21.596Z,10.91
2023-03-21T20:16:51.472Z,10.92
2023-03-21T20:19:20.365Z,10.91
2023-03-21T20:21:57.937Z,10.91
2023-03-21T20:24:36.838Z,10.91
2023-03-21T20:27:06.467Z,10.91
2023-03-21T20:30:08.207Z,10.91
2023-03-21T20:32:27.450Z,10.91
2023-03-21T20:35:07.392Z,10.89
2023-03-21T20:37:48.414Z,10.86
2023-03-21T20:40:19.414Z,10.82
2023-03-21T20:42:49.135Z,10.78
2023-03-21T20:45:32.089Z,10.77
2023-03-21T20:48:00.497Z,10.77
2023-03-21T20:50:33.176Z,10.75
2023-03-21T20:53:07.389Z,10.72
2023-03-21T20:55:37.330Z,10.69
2023-03-21T20:58:27.222Z,10.66
2023-03-21T21:01:04.867Z,10.67
2023-03-21T21:03:42.589Z,10.67
2023-03-21T21:06:19.974Z,10.67
2023-03-21T21:08:52.274Z,10.65
2023-03-21T21:12:05.237Z,10.63
2023-03-21T21:14:09.371Z,10.62
2023-03-21T21:16:42.347Z,10.60
2023-03-21T21:19:13.026Z,10.57
2023-03-21T21:21:42.686Z,10.54
2023-03-21T21:24:14.612Z,10.48
2023-03-21T21:26:48.954Z,10.43
2023-03-21T21:29:20.657Z,10.40
2023-03-21T21:31:51.927Z,10.35
2023-03-21T21:34:20.827Z,10.29
2023-03-21T21:36:51.294Z,10.24
2023-03-21T21:39:21.997Z,10.21
2023-03-21T21:41:50.089Z,10.18
2023-03-21T21:44:19.782Z,10.15
2023-03-21T21:46:47.964Z,10.13
2023-03-21T21:49:17.764Z,10.12
2023-03-21T21:51:48.149Z,10.11
2023-03-21T21:54:18.478Z,10.11
2023-03-21T21:56:54.266Z,10.10
2023-03-21T21:59:26.016Z,10.09
2023-03-21T22:01:58.864Z,10.08
2023-03-21T22:04:28.683Z,10.04
2023-03-21T22:06:58.316Z,9.99
2023-03-21T22:09:27.528Z,9.95
2023-03-21T22:12:00.449Z,9.88
2023-03-21T22:14:30.787Z,9.84
2023-03-21T22:17:00.401Z,9.79
2023-03-21T22:19:31.937Z,9.74
2023-03-21T22:30:07.437Z,9.61
2023-03-21T22:32:37.669Z,9.58
2023-03-21T22:35:08.729Z,9.55
2023-03-21T22:37:41.938Z,9.51
2023-03-21T22:40:10.886Z,9.43
2023-03-21T22:42:46.789Z,9.33
2023-03-21T22:45:14.085Z,9.23
2023-03-21T22:47:45.305Z,9.13
2023-03-21T22:50:18.804Z,9.08
2023-03-21T22:52:53.909Z,9.03
2023-03-21T22:55:24.384Z,9.00
2023-03-21T22:57:52.017Z,8.99
2023-03-21T23:00:19.524Z,8.98
2023-03-21T23:02:47.921Z,8.95
2023-03-21T23:05:15.167Z,8.94
2023-03-21T23:07:44.723Z,8.92
2023-03-21T23:10:12.729Z,8.88
2023-03-21T23:12:39.591Z,8.85
2023-03-21T23:15:09.225Z,8.83
2023-03-21T23:17:37.358Z,8.83
2023-03-21T23:20:08.017Z,8.85
2023-03-21T23:22:39.142Z,8.89
2023-03-21T23:25:06.927Z,8.95
2023-03-21T23:27:34.742Z,9.02
2023-03-21T23:30:07.055Z,9.10
2023-03-21T23:32:34.365Z,9.16
2023-03-21T23:35:12.503Z,9.23
2023-03-21T23:37:41.720Z,9.28
2023-03-21T23:40:09.865Z,9.32
2023-03-21T23:42:36.781Z,9.38
2023-03-21T23:45:04.134Z,9.43
2023-03-21T23:47:32.054Z,9.45
2023-03-21T23:49:59.173Z,9.44
2023-03-21T23:52:29.306Z,9.44
2023-03-21T23:54:56.420Z,9.43
2023-03-21T23:57:23.143Z,9.42
2023-03-21T23:59:52.882Z,9.39
